Terminal Aerodrome Forecast
Issued by NWS Austin/San Antonio, TX

Home | Current Version | Previous Version | Text Only | Print | Product List | Glossary On
Versions: 1 2 3 4 5 6 7 8 9 10 11 12 13
000
FTUS44 KEWX 300500
TAFDRT
TAF
KDRT 300524Z 3006/3106 10006KT P6SM SCT250
     FM301400 14010G20KT P6SM FEW050 SCT200
     FM310000 13007KT P6SM SCT120 BKN200=

USA.gov is the U.S. government's official web portal to all federal, state and local government web resources and services.